Time;durP1;ratioP1;P1;durP2;ratioP2;P2;SDS_P1;SDS_P2;PMS_P1;PMS_P2;Temp;Humidity;BMP_temperature;BMP_pressure;BME280_temperature;BME280_humidity;BME280_pressure;Samples;Min_cycle;Max_cycle;Signal;HPM_P1;HPM_P2
2021/03/17 00:02:12;;;;;;;8.50;3.78;;;4.10;85.50;;;;;;5059099;28;20017;-73
2021/03/17 00:04:37;;;;;;;8.60;4.20;;;4.10;86.20;;;;;;5078059;28;20060;-73
2021/03/17 00:07:03;;;;;;;6.10;3.50;;;4.10;86.40;;;;;;5078537;28;20083;-73
2021/03/17 00:09:29;;;;;;;6.03;3.20;;;4.10;86.50;;;;;;5075547;28;20021;-73
2021/03/17 00:11:55;;;;;;;9.00;4.32;;;4.20;86.20;;;;;;5068485;28;20025;-73
2021/03/17 00:14:20;;;;;;;6.47;4.22;;;4.20;86.40;;;;;;5066384;28;20005;-73
2021/03/17 00:16:46;;;;;;;7.72;4.45;;;4.20;86.10;;;;;;5066343;28;20013;-73
2021/03/17 00:19:11;;;;;;;10.23;4.63;;;4.20;86.50;;;;;;5045967;28;20372;-73
2021/03/17 00:21:37;;;;;;;8.32;4.15;;;4.20;86.90;;;;;;5029943;28;20014;-73
2021/03/17 00:24:03;;;;;;;7.97;4.57;;;4.20;87.00;;;;;;5049440;28;20012;-73
2021/03/17 00:26:29;;;;;;;9.75;4.50;;;4.20;87.00;;;;;;5045657;28;20084;-73
2021/03/17 00:28:55;;;;;;;13.60;4.97;;;4.20;87.40;;;;;;5069593;28;20337;-73
2021/03/17 00:31:20;;;;;;;8.48;5.10;;;4.20;87.80;;;;;;5067899;28;20021;-73
2021/03/17 00:33:46;;;;;;;8.23;4.30;;;4.30;87.80;;;;;;5066719;28;20012;-73
2021/03/17 00:36:11;;;;;;;9.07;4.35;;;4.30;87.70;;;;;;5065226;28;20005;-73
2021/03/17 00:38:37;;;;;;;9.52;4.43;;;4.30;87.60;;;;;;5065161;28;20013;-73
2021/03/17 00:41:03;;;;;;;6.65;4.15;;;4.30;87.60;;;;;;5038847;28;20040;-73
2021/03/17 00:43:28;;;;;;;9.27;4.38;;;4.30;87.60;;;;;;5028296;28;20028;-73
2021/03/17 00:45:54;;;;;;;13.30;4.35;;;4.30;87.70;;;;;;5045243;28;20295;-73
2021/03/17 00:48:19;;;;;;;6.80;4.10;;;4.30;87.60;;;;;;5042122;28;20022;-73
2021/03/17 00:50:45;;;;;;;8.30;3.95;;;4.40;87.90;;;;;;5045025;28;20013;-73
2021/03/17 00:53:11;;;;;;;8.95;4.53;;;4.30;87.90;;;;;;5028661;28;20008;-73
2021/03/17 00:55:36;;;;;;;8.20;4.50;;;4.30;87.90;;;;;;5060976;28;20021;-73
2021/03/17 00:58:02;;;;;;;6.82;3.25;;;4.30;88.50;;;;;;5065387;28;20329;-73
2021/03/17 01:00:27;;;;;;;5.32;3.40;;;4.30;89.10;;;;;;5033921;28;20013;-73
2021/03/17 01:02:53;;;;;;;7.90;3.55;;;4.30;89.10;;;;;;5028274;28;20383;-73
2021/03/17 01:05:19;;;;;;;7.15;3.80;;;4.30;89.30;;;;;;5059260;28;20020;-72
2021/03/17 01:07:44;;;;;;;6.45;3.85;;;4.30;89.10;;;;;;5064080;28;20048;-73
2021/03/17 01:10:24;;;;;;;7.30;4.20;;;4.30;88.70;;;;;;5064056;28;20036;-73
2021/03/17 01:12:50;;;;;;;6.07;3.80;;;4.30;88.70;;;;;;5064191;28;20019;-73
2021/03/17 01:15:18;;;;;;;6.07;4.13;;;4.30;88.70;;;;;;5064361;28;20009;-73
2021/03/17 01:17:43;;;;;;;5.93;3.92;;;4.30;88.80;;;;;;5064726;28;20013;-73
2021/03/17 01:20:09;;;;;;;8.18;4.22;;;4.30;88.90;;;;;;5063774;28;20025;-73
2021/03/17 01:22:35;;;;;;;6.05;3.90;;;4.30;88.90;;;;;;5044694;28;20016;-73
2021/03/17 01:25:01;;;;;;;7.40;4.28;;;4.30;88.90;;;;;;5043890;28;20088;-73
2021/03/17 01:27:26;;;;;;;8.85;4.47;;;4.30;88.70;;;;;;5045480;28;20318;-73
2021/03/17 01:29:52;;;;;;;6.55;3.67;;;4.30;88.90;;;;;;5038701;28;20048;-73
2021/03/17 01:32:18;;;;;;;7.75;4.32;;;4.30;88.80;;;;;;5064420;28;20017;-73
2021/03/17 01:34:43;;;;;;;7.95;3.88;;;4.40;88.70;;;;;;5064630;28;20020;-73
2021/03/17 01:37:09;;;;;;;6.78;4.05;;;4.40;89.00;;;;;;5064170;28;20255;-73
2021/03/17 01:39:35;;;;;;;7.50;4.20;;;4.30;88.90;;;;;;5064474;28;20040;-73
2021/03/17 01:42:00;;;;;;;7.40;4.00;;;4.30;88.90;;;;;;5047509;28;20075;-73
2021/03/17 01:44:26;;;;;;;7.95;4.05;;;4.20;88.80;;;;;;5058379;28;20018;-73
2021/03/17 01:46:52;;;;;;;10.32;3.70;;;4.30;89.10;;;;;;5058946;28;20005;-73
2021/03/17 01:49:17;;;;;;;5.50;2.92;;;4.30;88.50;;;;;;5062250;28;20013;-73
2021/03/17 01:51:43;;;;;;;5.78;3.75;;;4.30;88.20;;;;;;5078591;28;20054;-73
2021/03/17 01:54:09;;;;;;;6.57;3.85;;;4.30;88.10;;;;;;5071412;28;20050;-73
2021/03/17 01:56:34;;;;;;;7.30;4.25;;;4.20;88.20;;;;;;5068172;28;20029;-73
2021/03/17 01:59:00;;;;;;;6.70;3.83;;;4.10;88.40;;;;;;5064483;28;20398;-73
2021/03/17 02:01:25;;;;;;;6.47;4.50;;;4.00;88.30;;;;;;5063753;28;20255;-72
2021/03/17 02:03:51;;;;;;;14.00;5.10;;;4.00;88.30;;;;;;5047038;28;20051;-73
2021/03/17 02:06:17;;;;;;;8.57;5.03;;;4.10;88.40;;;;;;5063312;28;20044;-73
2021/03/17 02:08:43;;;;;;;8.52;5.00;;;4.20;87.90;;;;;;5063641;28;20012;-73
2021/03/17 02:11:10;;;;;;;8.10;5.03;;;4.10;87.70;;;;;;5062946;28;20025;-73
2021/03/17 02:13:41;;;;;;;13.25;4.78;;;4.00;88.30;;;;;;5046085;28;20013;-73
2021/03/17 02:16:30;;;;;;;7.18;5.20;;;4.00;88.30;;;;;;5063822;28;20005;-73
2021/03/17 02:19:35;;;;;;;8.70;4.97;;;4.10;88.40;;;;;;5062918;28;20084;-73
2021/03/17 02:22:09;;;;;;;11.23;4.47;;;4.10;88.50;;;;;;5063608;28;20295;-73
2021/03/17 02:24:49;;;;;;;8.57;5.53;;;4.00;89.10;;;;;;5062718;28;20056;-73
2021/03/17 02:27:23;;;;;;;8.02;5.25;;;4.00;88.90;;;;;;5045737;28;20043;-73
2021/03/17 02:30:22;;;;;;;8.60;5.28;;;4.00;88.90;;;;;;5062570;28;20313;-73
2021/03/17 02:33:25;;;;;;;10.15;4.90;;;4.10;89.30;;;;;;5062676;28;20028;-73
2021/03/17 02:35:54;;;;;;;8.98;5.35;;;4.10;89.40;;;;;;5064200;28;20068;-73
2021/03/17 02:38:20;;;;;;;8.77;5.20;;;4.00;89.50;;;;;;5045803;28;20302;-73
2021/03/17 02:40:46;;;;;;;10.95;5.47;;;4.10;89.30;;;;;;5062688;28;20063;-73
2021/03/17 02:43:22;;;;;;;9.77;6.00;;;4.10;89.20;;;;;;5046159;28;20005;-73
2021/03/17 02:45:55;;;;;;;7.90;4.63;;;4.10;89.10;;;;;;5046077;28;20188;-73
2021/03/17 02:48:23;;;;;;;14.27;5.22;;;4.10;89.10;;;;;;5047661;28;20012;-73
2021/03/17 02:50:50;;;;;;;9.68;5.40;;;4.10;89.20;;;;;;5035630;28;20224;-73
2021/03/17 02:53:21;;;;;;;12.93;6.13;;;4.10;89.70;;;;;;5026645;28;20018;-73
2021/03/17 02:56:02;;;;;;;8.70;6.18;;;4.10;89.80;;;;;;5026095;28;20009;-74
2021/03/17 02:58:27;;;;;;;10.02;6.93;;;4.10;89.60;;;;;;5062601;28;20005;-73
2021/03/17 03:00:53;;;;;;;11.30;6.75;;;4.20;89.30;;;;;;5062584;28;20016;-74
2021/03/17 03:03:19;;;;;;;10.23;6.13;;;4.20;89.30;;;;;;5062676;28;20005;-74
2021/03/17 03:05:44;;;;;;;10.52;6.90;;;4.30;89.10;;;;;;5062364;28;20017;-74
2021/03/17 03:08:10;;;;;;;12.70;7.43;;;4.30;89.00;;;;;;5045935;28;20086;-73
2021/03/17 03:10:36;;;;;;;11.85;6.72;;;4.30;89.30;;;;;;5061420;28;20016;-73
2021/03/17 03:13:02;;;;;;;12.25;8.05;;;4.20;89.30;;;;;;5040646;28;20020;-73
2021/03/17 03:15:28;;;;;;;11.50;7.97;;;4.30;89.30;;;;;;5046781;28;20037;-73
2021/03/17 03:17:58;;;;;;;13.65;7.97;;;4.30;89.30;;;;;;5060732;28;20012;-73
2021/03/17 03:20:24;;;;;;;11.60;8.13;;;4.20;89.30;;;;;;5061745;28;20030;-73
2021/03/17 03:22:50;;;;;;;13.80;8.20;;;4.20;89.60;;;;;;5061978;28;20023;-73
2021/03/17 03:25:16;;;;;;;13.07;7.82;;;4.20;89.50;;;;;;5061863;28;20012;-73
2021/03/17 03:27:44;;;;;;;10.85;7.25;;;4.20;89.50;;;;;;5047384;28;20016;-73
2021/03/17 03:30:15;;;;;;;9.45;6.72;;;4.20;89.40;;;;;;5059698;28;20260;-73
2021/03/17 03:32:42;;;;;;;10.48;6.78;;;4.20;89.50;;;;;;5061636;28;20021;-73
2021/03/17 03:35:09;;;;;;;9.43;7.95;;;4.30;89.60;;;;;;5063278;28;20222;-73
2021/03/17 03:37:35;;;;;;;15.55;8.30;;;4.30;89.50;;;;;;5062568;28;20005;-73
2021/03/17 03:40:09;;;;;;;9.93;7.90;;;4.40;89.40;;;;;;5045495;28;20080;-73
2021/03/17 03:42:34;;;;;;;10.88;8.73;;;4.40;89.40;;;;;;5061810;28;20017;-73
2021/03/17 03:45:00;;;;;;;11.77;7.90;;;4.40;89.20;;;;;;5061932;28;20066;-73
2021/03/17 03:47:27;;;;;;;12.38;8.02;;;4.30;89.20;;;;;;5062161;28;20009;-73
2021/03/17 03:49:52;;;;;;;11.88;7.55;;;4.30;89.60;;;;;;5045578;28;20076;-73
2021/03/17 03:52:21;;;;;;;11.95;8.32;;;4.30;90.30;;;;;;5045564;28;20025;-73
2021/03/17 03:54:52;;;;;;;14.90;9.10;;;4.30;90.10;;;;;;5061647;28;20019;-73
2021/03/17 03:57:21;;;;;;;12.90;8.83;;;4.20;90.40;;;;;;5061894;28;20005;-73
2021/03/17 03:59:48;;;;;;;12.27;8.93;;;4.20;90.90;;;;;;5046644;28;20013;-73
2021/03/17 04:02:27;;;;;;;16.65;10.05;;;4.10;91.10;;;;;;5041394;28;20009;-72
2021/03/17 04:04:53;;;;;;;17.52;10.75;;;4.10;91.40;;;;;;5071445;28;20024;-73
2021/03/17 04:07:19;;;;;;;13.48;9.00;;;4.00;91.60;;;;;;5071181;28;20045;-73
2021/03/17 04:09:49;;;;;;;14.50;9.35;;;4.00;91.60;;;;;;5063629;28;20012;-73
2021/03/17 04:12:15;;;;;;;14.73;9.38;;;3.90;91.50;;;;;;5062172;28;20080;-73
2021/03/17 04:14:43;;;;;;;12.82;9.20;;;3.90;91.60;;;;;;5045211;28;20017;-73
2021/03/17 04:17:11;;;;;;;13.18;7.68;;;3.90;91.40;;;;;;5045220;28;20005;-74
2021/03/17 04:19:37;;;;;;;12.27;7.90;;;3.80;91.40;;;;;;5062021;28;20084;-73
2021/03/17 04:22:03;;;;;;;14.63;9.20;;;3.80;91.40;;;;;;5062301;28;20009;-73
2021/03/17 04:24:29;;;;;;;11.65;8.73;;;3.80;91.40;;;;;;5061773;28;20005;-73
2021/03/17 04:26:54;;;;;;;16.02;9.15;;;3.70;91.30;;;;;;5062306;28;20024;-73
2021/03/17 04:29:20;;;;;;;15.23;9.20;;;3.80;91.20;;;;;;5063860;28;20009;-73
2021/03/17 04:31:46;;;;;;;11.48;7.88;;;3.80;91.10;;;;;;5069359;28;20036;-73
2021/03/17 04:34:11;;;;;;;11.65;8.88;;;3.80;91.00;;;;;;5048656;28;20234;-73
2021/03/17 04:36:37;;;;;;;14.05;9.57;;;3.90;90.90;;;;;;5065102;28;20013;-72
2021/03/17 04:39:03;;;;;;;21.48;10.20;;;3.90;90.70;;;;;;5065182;28;20013;-73
2021/03/17 04:41:28;;;;;;;12.90;9.50;;;3.90;90.70;;;;;;5048446;28;20188;-73
2021/03/17 04:43:54;;;;;;;16.20;9.02;;;3.90;90.60;;;;;;5064640;28;20277;-73
2021/03/17 04:46:20;;;;;;;16.25;9.02;;;3.90;90.60;;;;;;5064210;28;20025;-73
2021/03/17 04:48:45;;;;;;;14.38;9.57;;;3.90;90.60;;;;;;5064614;28;20013;-73
2021/03/17 04:51:11;;;;;;;15.57;10.52;;;3.90;90.40;;;;;;5064652;28;20017;-73
2021/03/17 04:53:37;;;;;;;16.15;11.57;;;3.90;90.30;;;;;;5064477;28;20028;-73
2021/03/17 04:56:04;;;;;;;15.50;10.82;;;3.90;90.20;;;;;;5048281;28;20302;-73
2021/03/17 04:58:30;;;;;;;13.02;10.38;;;3.80;90.20;;;;;;5048524;28;20306;-73
2021/03/17 05:00:55;;;;;;;15.43;9.55;;;3.80;90.10;;;;;;5066356;28;20013;-73
2021/03/17 05:03:22;;;;;;;13.90;9.63;;;3.80;89.80;;;;;;5044990;28;20089;-73
2021/03/17 05:05:49;;;;;;;11.65;9.45;;;3.80;89.30;;;;;;5031790;28;20009;-73
2021/03/17 05:08:16;;;;;;;12.57;10.30;;;3.80;89.30;;;;;;5064986;28;20023;-73
2021/03/17 05:10:42;;;;;;;12.10;8.70;;;3.80;89.30;;;;;;5064810;28;20009;-73
2021/03/17 05:13:08;;;;;;;11.35;8.82;;;3.90;89.10;;;;;;5047808;28;20029;-73
2021/03/17 05:15:35;;;;;;;9.65;6.75;;;3.90;88.70;;;;;;5064292;28;20009;-72
2021/03/17 05:18:00;;;;;;;11.82;7.35;;;3.90;88.20;;;;;;5047481;28;20020;-72
2021/03/17 05:20:26;;;;;;;8.25;6.15;;;4.00;88.00;;;;;;5044035;28;20076;-73
2021/03/17 05:22:52;;;;;;;9.70;6.28;;;4.20;87.70;;;;;;5027704;28;20005;-73
2021/03/17 05:25:19;;;;;;;8.00;5.93;;;4.20;87.00;;;;;;5059901;28;20012;-73
2021/03/17 05:27:46;;;;;;;7.43;4.40;;;4.30;86.80;;;;;;5048964;28;20013;-73
2021/03/17 05:30:13;;;;;;;12.00;5.95;;;4.40;87.10;;;;;;5065179;28;20058;-73
2021/03/17 05:32:40;;;;;;;7.13;4.82;;;4.40;86.20;;;;;;5048038;28;20217;-73
2021/03/17 05:35:08;;;;;;;7.78;4.57;;;4.50;86.20;;;;;;5037700;28;20017;-73
2021/03/17 05:37:33;;;;;;;6.68;4.63;;;4.60;85.60;;;;;;5048028;28;20214;-73
2021/03/17 05:39:59;;;;;;;5.10;3.40;;;4.60;85.80;;;;;;5064154;28;20012;-73
2021/03/17 05:42:25;;;;;;;6.03;3.72;;;4.60;85.00;;;;;;5045579;28;20013;-73
2021/03/17 05:44:52;;;;;;;8.98;4.70;;;4.70;85.20;;;;;;5060775;28;20080;-74
2021/03/17 05:47:18;;;;;;;12.38;5.97;;;4.80;85.20;;;;;;5062772;28;20029;-74
2021/03/17 05:49:44;;;;;;;5.75;4.45;;;4.80;84.80;;;;;;5064146;28;20028;-73
2021/03/17 05:52:09;;;;;;;7.70;5.10;;;4.80;84.70;;;;;;5047722;28;20028;-73
2021/03/17 05:54:35;;;;;;;12.98;6.00;;;4.50;85.10;;;;;;5070852;28;20008;-76
2021/03/17 05:57:01;;;;;;;9.82;6.03;;;4.50;85.90;;;;;;5078656;28;20044;-76
2021/03/17 05:59:28;;;;;;;9.63;6.32;;;4.50;85.70;;;;;;5077894;28;20052;-76
2021/03/17 06:01:57;;;;;;;9.10;5.50;;;4.50;86.10;;;;;;5075200;28;20047;-75
2021/03/17 06:04:27;;;;;;;8.95;5.47;;;4.50;86.10;;;;;;5056703;28;20040;-75
2021/03/17 06:06:55;;;;;;;8.98;5.45;;;4.50;86.30;;;;;;5050329;28;20190;-75
2021/03/17 06:09:21;;;;;;;10.57;6.97;;;4.40;86.00;;;;;;5063369;28;20068;-76
2021/03/17 06:11:48;;;;;;;12.18;8.85;;;4.30;85.90;;;;;;5043825;28;20028;-76
2021/03/17 06:14:14;;;;;;;13.57;9.23;;;4.00;86.70;;;;;;5030701;28;20318;-74
2021/03/17 06:16:39;;;;;;;16.55;9.10;;;3.80;87.60;;;;;;5046785;28;20084;-75
2021/03/17 06:19:05;;;;;;;13.52;8.15;;;3.80;88.00;;;;;;5042743;28;20311;-74
2021/03/17 06:21:31;;;;;;;13.77;7.72;;;3.90;87.90;;;;;;5044295;28;20009;-74
2021/03/17 06:23:56;;;;;;;11.20;7.30;;;3.90;87.30;;;;;;5062766;28;20095;-76
2021/03/17 06:26:22;;;;;;;12.27;8.77;;;3.90;87.10;;;;;;5063006;28;20329;-75
2021/03/17 06:28:48;;;;;;;10.63;7.07;;;4.00;87.10;;;;;;5046370;28;20080;-76
2021/03/17 06:31:14;;;;;;;15.70;7.30;;;4.10;86.80;;;;;;5048330;28;20021;-74
2021/03/17 06:33:41;;;;;;;12.50;7.53;;;4.10;86.20;;;;;;5070195;28;20063;-75
2021/03/17 06:36:16;;;;;;;13.85;7.28;;;4.10;86.20;;;;;;5048079;28;20219;-74
2021/03/17 06:38:42;;;;;;;9.52;5.75;;;4.10;85.90;;;;;;5045509;28;20073;-74
2021/03/17 06:41:08;;;;;;;10.35;6.10;;;4.10;85.70;;;;;;5063054;28;20013;-73
2021/03/17 06:43:40;;;;;;;10.77;5.60;;;4.30;85.50;;;;;;5045875;28;20028;-73
2021/03/17 06:46:07;;;;;;;9.15;5.15;;;4.30;84.90;;;;;;5036677;28;20017;-74
2021/03/17 06:48:33;;;;;;;10.52;4.53;;;4.40;83.60;;;;;;5028115;28;20013;-74
2021/03/17 06:51:12;;;;;;;10.95;5.15;;;4.50;83.40;;;;;;5061645;28;20021;-74
2021/03/17 06:53:40;;;;;;;11.00;5.00;;;4.60;83.20;;;;;;5059873;28;20040;-74
2021/03/17 06:56:22;;;;;;;8.50;5.20;;;4.50;82.30;;;;;;5046650;28;20055;-73
2021/03/17 06:59:11;;;;;;;18.50;5.40;;;4.50;82.40;;;;;;5033434;28;20005;-73
2021/03/17 07:01:41;;;;;;;10.98;5.05;;;4.60;82.20;;;;;;5047653;28;20024;-73
2021/03/17 07:04:17;;;;;;;11.40;4.85;;;4.60;81.90;;;;;;5062632;28;20005;-73
2021/03/17 07:06:44;;;;;;;13.45;4.72;;;4.60;81.20;;;;;;5033474;28;20044;-73
2021/03/17 07:09:14;;;;;;;10.35;4.07;;;4.60;81.80;;;;;;5043822;28;20036;-73
2021/03/17 07:11:39;;;;;;;9.30;4.40;;;4.80;81.30;;;;;;5081459;28;20225;-73
2021/03/17 07:14:05;;;;;;;10.70;5.10;;;4.90;80.50;;;;;;5027380;28;20017;-73
2021/03/17 07:16:38;;;;;;;7.53;4.38;;;5.00;80.20;;;;;;5061973;28;20040;-73
2021/03/17 07:19:05;;;;;;;6.97;4.15;;;5.10;79.90;;;;;;5045874;28;20459;-74
2021/03/17 07:21:40;;;;;;;8.13;4.25;;;5.20;79.40;;;;;;5041452;28;20040;-74
2021/03/17 07:24:07;;;;;;;8.82;4.60;;;5.40;79.00;;;;;;5054456;28;20094;-74
2021/03/17 07:26:37;;;;;;;8.93;4.10;;;5.50;78.30;;;;;;5056680;28;20283;-74
2021/03/17 07:29:11;;;;;;;15.30;4.53;;;6.00;78.00;;;;;;5064084;28;20024;-74
2021/03/17 07:31:57;;;;;;;5.72;3.80;;;8.00;75.30;;;;;;5058123;28;20159;-74
2021/03/17 07:34:26;;;;;;;6.57;3.35;;;9.10;69.10;;;;;;5060759;28;20036;-75
2021/03/17 07:36:55;;;;;;;6.22;2.92;;;9.60;67.10;;;;;;5060884;28;20029;-74
2021/03/17 07:39:22;;;;;;;12.60;3.70;;;9.70;63.50;;;;;;5061006;28;20013;-74
2021/03/17 07:41:51;;;;;;;7.15;3.17;;;10.20;63.20;;;;;;5047222;28;20088;-74
2021/03/17 07:44:16;;;;;;;9.05;3.22;;;10.60;61.80;;;;;;5043726;28;20056;-74
2021/03/17 07:46:44;;;;;;;5.90;2.67;;;11.10;60.60;;;;;;5061873;28;20032;-74
2021/03/17 07:49:10;;;;;;;5.93;2.50;;;11.40;59.80;;;;;;5051606;28;20017;-74
2021/03/17 07:51:40;;;;;;;6.90;2.80;;;11.60;58.30;;;;;;5041312;28;20103;-74
2021/03/17 07:54:07;;;;;;;7.90;2.80;;;12.10;58.90;;;;;;5054902;28;20014;-74
2021/03/17 07:56:32;;;;;;;6.65;2.50;;;12.50;57.00;;;;;;5054339;28;20015;-73
2021/03/17 07:58:58;;;;;;;5.53;2.05;;;12.20;54.10;;;;;;5039286;28;20017;-73
2021/03/17 08:01:23;;;;;;;5.65;2.00;;;11.40;55.20;;;;;;5060175;28;20009;-73
2021/03/17 08:03:50;;;;;;;13.88;2.65;;;11.80;55.40;;;;;;5068559;28;20319;-74
2021/03/17 08:06:17;;;;;;;8.32;1.80;;;11.10;54.80;;;;;;5047777;28;20111;-74
2021/03/17 08:08:43;;;;;;;5.13;1.80;;;9.90;56.60;;;;;;5067782;28;20055;-74
2021/03/17 08:11:14;;;;;;;5.10;1.55;;;9.10;57.90;;;;;;5068352;28;20040;-74
2021/03/17 08:13:42;;;;;;;11.57;1.80;;;9.00;59.60;;;;;;5051067;28;20078;-74
2021/03/17 08:16:07;;;;;;;6.65;1.85;;;9.00;59.50;;;;;;5040179;28;20005;-75
2021/03/17 08:18:33;;;;;;;7.05;1.73;;;10.00;59.30;;;;;;5046737;28;20361;-75
2021/03/17 08:20:59;;;;;;;3.70;1.40;;;10.20;58.00;;;;;;5066425;28;20325;-74
2021/03/17 08:23:37;;;;;;;2.83;1.00;;;11.40;56.00;;;;;;5070677;28;20016;-74
2021/03/17 08:26:03;;;;;;;1.20;1.00;;;11.50;54.30;;;;;;5082607;28;20067;-74
2021/03/17 08:28:29;;;;;;;4.20;1.65;;;12.30;53.70;;;;;;5049275;28;20008;-74
2021/03/17 08:30:56;;;;;;;11.48;1.63;;;13.00;51.90;;;;;;5065679;28;20005;-73
2021/03/17 08:33:40;;;;;;;2.00;1.10;;;12.70;52.10;;;;;;5062544;28;20318;-73
2021/03/17 08:36:15;;;;;;;4.57;1.63;;;11.10;52.10;;;;;;5062615;28;20135;-74
2021/03/17 08:38:42;;;;;;;5.65;1.30;;;11.90;53.90;;;;;;5051511;28;20009;-74
2021/03/17 08:41:08;;;;;;;2.45;0.90;;;12.90;50.50;;;;;;5047644;28;20019;-74
2021/03/17 08:43:36;;;;;;;3.63;1.10;;;12.90;50.00;;;;;;5038388;28;20032;-74
2021/03/17 08:46:18;;;;;;;2.10;0.95;;;12.70;49.70;;;;;;5058327;28;20020;-75
2021/03/17 08:49:11;;;;;;;2.97;1.30;;;12.90;49.10;;;;;;5057381;28;20020;-74
2021/03/17 08:51:45;;;;;;;2.42;1.23;;;14.00;47.40;;;;;;5044072;28;20045;-74
2021/03/17 08:54:29;;;;;;;2.42;1.27;;;14.00;47.80;;;;;;5061141;28;20023;-74
2021/03/17 08:57:01;;;;;;;1.85;1.00;;;13.80;46.90;;;;;;5058554;28;20005;-74
2021/03/17 08:59:46;;;;;;;6.40;1.00;;;14.00;47.50;;;;;;5061393;28;20043;-75
2021/03/17 09:02:42;;;;;;;3.28;1.10;;;14.20;46.90;;;;;;5048545;28;20828;-74
2021/03/17 09:05:19;;;;;;;1.73;1.00;;;14.00;46.50;;;;;;5067546;28;20138;-73
2021/03/17 09:08:30;;;;;;;2.88;1.40;;;14.20;46.00;;;;;;5047126;28;20045;-74
2021/03/17 09:10:55;;;;;;;2.75;1.90;;;15.00;47.60;;;;;;5041475;28;20021;-76
2021/03/17 09:13:49;;;;;;;8.20;3.10;;;15.60;48.50;;;;;;5010966;28;20169;-75
2021/03/17 09:16:15;;;;;;;14.75;2.45;;;16.60;47.10;;;;;;5021637;28;20025;-74
2021/03/17 09:18:40;;;;;;;19.05;2.10;;;17.00;46.20;;;;;;5009229;28;20017;-74
2021/03/17 09:21:06;;;;;;;8.07;2.10;;;17.10;45.40;;;;;;5039597;28;20009;-74
2021/03/17 09:23:36;;;;;;;4.88;2.05;;;16.70;45.00;;;;;;5010417;28;20009;-75
2021/03/17 09:26:03;;;;;;;3.33;1.80;;;17.00;44.70;;;;;;5035775;28;20084;-75
2021/03/17 09:28:31;;;;;;;9.85;2.60;;;17.30;44.40;;;;;;5038992;28;20048;-75
2021/03/17 09:30:58;;;;;;;28.80;2.55;;;17.10;44.40;;;;;;5024249;28;21361;-74
2021/03/17 09:33:29;;;;;;;12.20;3.08;;;16.60;44.70;;;;;;5036994;28;20021;-74
2021/03/17 09:35:55;;;;;;;10.35;2.45;;;16.00;46.00;;;;;;5012063;28;20095;-75
2021/03/17 09:38:23;;;;;;;15.77;2.78;;;15.60;46.70;;;;;;5022443;28;20009;-74
2021/03/17 09:40:56;;;;;;;14.02;2.50;;;15.60;46.90;;;;;;5030300;28;20033;-73
2021/03/17 09:43:26;;;;;;;4.82;1.83;;;15.90;47.10;;;;;;5051116;28;20024;-74
2021/03/17 09:45:52;;;;;;;3.47;1.42;;;15.70;46.90;;;;;;5048419;28;20021;-77
2021/03/17 09:48:18;;;;;;;5.30;1.20;;;15.70;45.70;;;;;;5069059;28;20060;-74
2021/03/17 09:50:44;;;;;;;2.58;1.52;;;16.10;45.10;;;;;;5058637;28;20033;-74
2021/03/17 09:53:14;;;;;;;3.22;1.90;;;16.40;45.20;;;;;;5062296;28;20020;-75
2021/03/17 09:55:40;;;;;;;4.38;1.73;;;16.80;44.50;;;;;;5073859;28;20077;-74
2021/03/17 09:58:08;;;;;;;5.07;1.70;;;16.90;44.60;;;;;;5075860;28;20036;-75
2021/03/17 10:00:34;;;;;;;6.57;1.40;;;16.40;44.10;;;;;;5072856;28;20044;-74
2021/03/17 10:03:01;;;;;;;6.07;1.63;;;16.30;44.20;;;;;;5066448;28;20025;-75
2021/03/17 10:05:26;;;;;;;3.17;1.50;;;16.30;44.10;;;;;;5043447;28;20062;-74
2021/03/17 10:07:52;;;;;;;2.13;1.23;;;15.70;44.90;;;;;;5042167;28;20024;-76
2021/03/17 10:10:18;;;;;;;3.35;1.50;;;15.90;45.30;;;;;;5030995;28;20074;-74
2021/03/17 10:12:44;;;;;;;4.43;1.08;;;15.90;45.50;;;;;;5065793;28;20029;-74
2021/03/17 10:15:11;;;;;;;10.38;1.63;;;16.20;44.40;;;;;;5027022;28;20080;-75
2021/03/17 10:17:37;;;;;;;14.68;1.80;;;16.50;44.10;;;;;;5047562;28;20016;-76
2021/03/17 10:20:09;;;;;;;22.25;1.95;;;16.50;43.90;;;;;;5062522;28;20215;-76
2021/03/17 10:22:35;;;;;;;11.45;2.15;;;16.10;44.00;;;;;;5053930;28;20306;-75
2021/03/17 10:25:09;;;;;;;17.92;2.03;;;16.10;44.30;;;;;;5063874;28;20126;-74
2021/03/17 10:27:59;;;;;;;6.53;1.95;;;15.90;44.10;;;;;;5063726;28;20028;-74
2021/03/17 10:30:27;;;;;;;3.38;1.85;;;15.90;44.20;;;;;;5041703;28;20037;-74
2021/03/17 10:32:53;;;;;;;19.73;3.05;;;16.00;45.50;;;;;;5063461;28;20021;-74
2021/03/17 10:35:18;;;;;;;17.05;1.90;;;16.00;45.30;;;;;;5065391;28;20009;-74
2021/03/17 10:37:45;;;;;;;16.45;2.15;;;15.40;44.80;;;;;;5061399;28;20013;-74
2021/03/17 10:40:22;;;;;;;12.90;2.40;;;15.30;46.20;;;;;;5025315;28;20032;-74
2021/03/17 10:43:12;;;;;;;9.73;2.08;;;15.40;46.70;;;;;;5060895;28;20021;-74
2021/03/17 10:45:45;;;;;;;5.90;1.80;;;15.40;46.30;;;;;;5052140;28;20314;-75
2021/03/17 10:48:24;;;;;;;8.38;1.90;;;14.30;46.10;;;;;;5066868;28;20023;-74
2021/03/17 10:50:50;;;;;;;5.15;2.25;;;14.50;47.90;;;;;;5060344;28;20048;-74
2021/03/17 10:53:29;;;;;;;10.45;2.58;;;15.20;47.50;;;;;;5043856;28;20017;-74
2021/03/17 10:55:56;;;;;;;7.18;2.60;;;15.10;47.60;;;;;;5059569;28;20315;-74
2021/03/17 10:58:23;;;;;;;18.05;2.47;;;14.90;47.60;;;;;;5046964;28;20005;-74
2021/03/17 11:00:50;;;;;;;2.92;1.98;;;14.20;48.80;;;;;;5061866;28;20123;-74
2021/03/17 11:03:35;;;;;;;4.97;2.35;;;13.50;49.20;;;;;;5060149;28;20297;-74
2021/03/17 11:06:25;;;;;;;8.38;2.63;;;12.90;50.00;;;;;;5052043;28;20091;-74
2021/03/17 11:09:03;;;;;;;4.63;2.20;;;13.00;52.20;;;;;;5062819;28;20080;-74
2021/03/17 11:11:29;;;;;;;5.32;2.45;;;13.00;50.40;;;;;;5064957;28;20330;-74
2021/03/17 11:13:55;;;;;;;8.57;2.90;;;11.30;52.30;;;;;;5029512;28;20005;-74
2021/03/17 11:16:36;;;;;;;3.92;2.15;;;10.40;54.80;;;;;;5062282;28;20257;-74
2021/03/17 11:19:11;;;;;;;7.85;2.20;;;9.80;56.50;;;;;;5048630;28;20013;-73
2021/03/17 11:21:38;;;;;;;9.50;1.98;;;9.50;57.90;;;;;;5045414;28;20203;-74
2021/03/17 11:24:24;;;;;;;5.22;1.70;;;9.30;57.90;;;;;;5059240;28;20226;-74
2021/03/17 11:26:50;;;;;;;6.13;2.40;;;8.80;58.80;;;;;;5058649;28;20045;-74
2021/03/17 11:29:23;;;;;;;5.78;2.50;;;8.70;60.70;;;;;;5042062;28;20028;-75
2021/03/17 11:31:52;;;;;;;19.23;2.42;;;9.00;60.60;;;;;;5048820;28;20028;-73
2021/03/17 11:34:18;;;;;;;3.30;1.65;;;9.00;60.60;;;;;;5057694;28;20002;-75
2021/03/17 11:36:44;;;;;;;3.70;1.67;;;8.80;62.40;;;;;;5059887;28;20032;-74
2021/03/17 11:39:12;;;;;;;9.27;3.03;;;8.60;63.60;;;;;;5042629;28;20070;-73
2021/03/17 11:41:38;;;;;;;6.18;1.98;;;8.50;64.60;;;;;;5059396;28;20001;-73
2021/03/17 11:44:05;;;;;;;5.63;1.90;;;8.60;64.00;;;;;;5057527;28;20005;-74
2021/03/17 11:46:31;;;;;;;7.60;2.10;;;8.70;64.40;;;;;;5055141;28;20028;-74
2021/03/17 11:48:56;;;;;;;3.90;2.30;;;8.50;66.20;;;;;;5053182;28;20025;-74
2021/03/17 11:51:22;;;;;;;4.10;1.85;;;8.20;67.90;;;;;;5062641;28;20053;-75
2021/03/17 11:53:48;;;;;;;6.20;2.20;;;7.90;69.40;;;;;;5044613;28;20092;-75
2021/03/17 11:56:16;;;;;;;5.75;2.90;;;8.10;70.50;;;;;;5039362;28;20067;-75
2021/03/17 11:58:42;;;;;;;5.70;2.58;;;8.00;71.00;;;;;;5058039;28;20005;-75
2021/03/17 12:01:07;;;;;;;6.30;2.60;;;7.90;72.60;;;;;;5041141;28;20370;-74
2021/03/17 12:03:33;;;;;;;4.03;2.30;;;7.70;73.80;;;;;;5064206;28;20013;-73
2021/03/17 12:05:59;;;;;;;4.95;2.00;;;7.60;75.10;;;;;;5050031;28;20022;-73
2021/03/17 12:08:25;;;;;;;4.22;2.10;;;7.30;75.40;;;;;;5060715;28;20088;-74
2021/03/17 12:10:52;;;;;;;4.90;2.00;;;7.60;74.80;;;;;;5065404;28;20087;-74
2021/03/17 12:13:18;;;;;;;5.72;2.35;;;7.50;74.20;;;;;;5060632;28;20028;-73
2021/03/17 12:15:44;;;;;;;9.98;2.05;;;7.60;74.50;;;;;;5060625;28;20366;-73
2021/03/17 12:18:10;;;;;;;5.93;1.95;;;7.70;74.30;;;;;;5038604;28;20020;-73
2021/03/17 12:20:36;;;;;;;3.65;1.92;;;7.50;74.20;;;;;;5059391;28;20025;-73
2021/03/17 12:23:01;;;;;;;8.52;2.00;;;7.50;73.50;;;;;;5050293;28;20018;-74
2021/03/17 12:25:27;;;;;;;6.93;2.03;;;7.50;73.40;;;;;;5047045;28;20013;-74
2021/03/17 12:27:53;;;;;;;4.97;2.30;;;7.50;74.20;;;;;;5046164;28;20015;-73
2021/03/17 12:30:21;;;;;;;6.75;2.33;;;7.70;73.70;;;;;;5059908;28;20024;-73
2021/03/17 12:32:47;;;;;;;4.68;2.10;;;7.70;72.60;;;;;;5044272;28;20226;-73
2021/03/17 12:35:13;;;;;;;7.05;2.70;;;7.50;73.50;;;;;;5043595;28;20005;-74
2021/03/17 12:37:43;;;;;;;13.40;2.92;;;7.30;74.70;;;;;;5061484;28;20016;-74
2021/03/17 12:40:09;;;;;;;10.77;2.42;;;7.40;75.10;;;;;;5044044;28;20253;-74
2021/03/17 12:42:35;;;;;;;4.50;2.10;;;7.60;74.70;;;;;;5059599;28;20318;-73
2021/03/17 12:45:05;;;;;;;6.90;2.20;;;7.70;72.90;;;;;;5064730;28;20020;-73
2021/03/17 12:47:31;;;;;;;4.40;2.20;;;7.60;73.50;;;;;;5059335;28;20389;-73
2021/03/17 12:49:57;;;;;;;5.85;2.45;;;7.60;73.80;;;;;;5060027;28;21403;-74
2021/03/17 12:52:23;;;;;;;6.15;2.60;;;7.90;73.70;;;;;;5051179;28;20044;-73
2021/03/17 12:54:48;;;;;;;7.75;2.28;;;7.90;74.30;;;;;;5059914;28;20017;-74
2021/03/17 12:57:14;;;;;;;5.97;2.70;;;8.00;74.30;;;;;;5069112;28;20329;-74
2021/03/17 12:59:40;;;;;;;6.57;3.15;;;8.00;75.00;;;;;;5065431;28;20021;-74